Welcome to Des Moines Iowa Weather. I am an independent private personal weather station on the Northwest Side of Des Moines, Iowa. Just East of Windsor Heights and just West of Glendale . This site is also mobile friendly.

There are no active watches, warnings or advisories


Visit our other weather sites:

Historical Data

Weather Station Setup



Weather Underground History page Text

Daily Summary for January 30, 2018 Units:  Both    English   Metric
« Previous Day
Next Day »
Daily Weekly Monthly Yearly Custom
  High: Low: Average:
Temperature: 41.5 °F /  5.3 °C 13.3 °F /  -10.4 °C 28 °F /  -2.2 °C
Dew Point: 24.0 °F /  -4.4 °C 9.0 °F /  -12.8 °C 16.6 °F /  -8.6 °C
Humidity: 87 % 47 % 65 %
Wind Speed: 10.0 mph /  16.1 km/h - 2.7 mph /  4.3 km/h
Wind Gust: 14.0 mph /  22.5 km/h - -
Wind:- - SSE
Pressure: 30.55 in /  1034.4 hPa 29.71 in /  1006 hPa -
Precipitation: 0.00 in /  0 mm    
Historical Graphs
 
 
Tabular Data for January 30, 2018
Time Temperature Dew Point Pressure Wind Wind Speed Wind Gust Humidity Rainfall Rate (Hourly)
00:00 15.7 °F /  -9.1 °C 11.0 °F /  -11.7 °C 30.55 in /  1034.4 hPa Calm     82 % 0.00 in /  0 mm
00:16 15.5 °F /  -9.2 °C 11.0 °F /  -11.7 °C 30.55 in /  1034.4 hPa Calm     82 % 0.00 in /  0 mm
00:31 15.3 °F /  -9.3 °C 11.0 °F /  -11.7 °C 30.55 in /  1034.4 hPa Calm     82 % 0.00 in /  0 mm
00:46 15.0 °F /  -9.4 °C 10.0 °F /  -12.2 °C 30.55 in /  1034.4 hPa Calm     82 % 0.00 in /  0 mm
01:01 14.5 °F /  -9.7 °C 10.0 °F /  -12.2 °C 30.54 in /  1034.1 hPa Calm     82 % 0.00 in /  0 mm
01:16 14.2 °F /  -9.9 °C 10.0 °F /  -12.2 °C 30.54 in /  1034.1 hPa Calm     82 % 0.00 in /  0 mm
01:31 13.9 °F /  -10.1 °C 9.0 °F /  -12.8 °C 30.54 in /  1034.1 hPa Calm     82 % 0.00 in /  0 mm
01:46 13.6 °F /  -10.2 °C 9.0 °F /  -12.8 °C 30.54 in /  1034.1 hPa Calm     83 % 0.00 in /  0 mm
02:01 13.4 °F /  -10.3 °C 9.0 °F /  -12.8 °C 30.54 in /  1034.1 hPa Calm     84 % 0.00 in /  0 mm
02:16 13.3 °F /  -10.4 °C 9.0 °F /  -12.8 °C 30.54 in /  1034.1 hPa Calm     84 % 0.00 in /  0 mm
02:31 13.3 °F /  -10.4 °C 10.0 °F /  -12.2 °C 30.52 in /  1033.4 hPa Calm     85 % 0.00 in /  0 mm
02:46 13.3 °F /  -10.4 °C 10.0 °F /  -12.2 °C 30.52 in /  1033.4 hPa Calm     86 % 0.00 in /  0 mm
03:01 13.6 °F /  -10.2 °C 10.0 °F /  -12.2 °C 30.52 in /  1033.4 hPa Calm     86 % 0.00 in /  0 mm
03:19 14.2 °F /  -9.9 °C 11.0 °F /  -11.7 °C 30.51 in /  1033.1 hPa NNE 1.0 mph /  1.6 km/h 3.0 mph /  4.8 km/h 87 % 0.00 in /  0 mm
03:31 14.5 °F /  -9.7 °C 11.0 °F /  -11.7 °C 30.51 in /  1033.1 hPa Calm   2.0 mph /  3.2 km/h 87 % 0.00 in /  0 mm
03:46 14.7 °F /  -9.6 °C 11.0 °F /  -11.7 °C 30.50 in /  1032.7 hPa Calm     86 % 0.00 in /  0 mm
04:01 14.7 °F /  -9.6 °C 11.0 °F /  -11.7 °C 30.50 in /  1032.7 hPa NNE 1.0 mph /  1.6 km/h 1.0 mph /  1.6 km/h 85 % 0.00 in /  0 mm
04:16 14.7 °F /  -9.6 °C 11.0 °F /  -11.7 °C 30.50 in /  1032.7 hPa Calm   1.0 mph /  1.6 km/h 85 % 0.00 in /  0 mm
04:31 14.8 °F /  -9.6 °C 11.0 °F /  -11.7 °C 30.49 in /  1032.4 hPa Calm   3.0 mph /  4.8 km/h 85 % 0.00 in /  0 mm
04:46 15.0 °F /  -9.4 °C 11.0 °F /  -11.7 °C 30.50 in /  1032.7 hPa Calm   3.0 mph /  4.8 km/h 85 % 0.00 in /  0 mm
05:01 15.1 °F /  -9.4 °C 11.0 °F /  -11.7 °C 30.49 in /  1032.4 hPa Calm   2.0 mph /  3.2 km/h 85 % 0.00 in /  0 mm
05:16 15.4 °F /  -9.2 °C 12.0 °F /  -11.1 °C 30.47 in /  1031.7 hPa ESE 2.0 mph /  3.2 km/h 4.0 mph /  6.4 km/h 85 % 0.00 in /  0 mm
05:31 15.8 °F /  -9 °C 12.0 °F /  -11.1 °C 30.46 in /  1031.4 hPa Calm   3.0 mph /  4.8 km/h 85 % 0.00 in /  0 mm
05:46 16.2 °F /  -8.8 °C 12.0 °F /  -11.1 °C 30.46 in /  1031.4 hPa ESE 2.0 mph /  3.2 km/h 3.0 mph /  4.8 km/h 84 % 0.00 in /  0 mm
06:01 16.7 °F /  -8.5 °C 13.0 °F /  -10.6 °C 30.45 in /  1031 hPa Calm   4.0 mph /  6.4 km/h 84 % 0.00 in /  0 mm
06:16 17.1 °F /  -8.3 °C 13.0 °F /  -10.6 °C 30.44 in /  1030.7 hPa ESE 1.0 mph /  1.6 km/h 3.0 mph /  4.8 km/h 84 % 0.00 in /  0 mm
06:31 17.6 °F /  -8 °C 13.0 °F /  -10.6 °C 30.43 in /  1030.4 hPa SE 1.0 mph /  1.6 km/h 4.0 mph /  6.4 km/h 83 % 0.00 in /  0 mm
06:46 18.1 °F /  -7.7 °C 14.0 °F /  -10 °C 30.42 in /  1030 hPa SE 2.0 mph /  3.2 km/h 4.0 mph /  6.4 km/h 82 % 0.00 in /  0 mm
07:01 18.1 °F /  -7.7 °C 13.0 °F /  -10.6 °C 30.42 in /  1030 hPa SE 3.0 mph /  4.8 km/h 4.0 mph /  6.4 km/h 81 % 0.00 in /  0 mm
07:16 18.2 °F /  -7.7 °C 13.0 °F /  -10.6 °C 30.42 in /  1030 hPa SE 1.0 mph /  1.6 km/h 4.0 mph /  6.4 km/h 81 % 0.00 in /  0 mm
07:31 18.3 °F /  -7.6 °C 13.0 °F /  -10.6 °C 30.41 in /  1029.7 hPa Calm   5.0 mph /  8 km/h 81 % 0.00 in /  0 mm
07:46 18.5 °F /  -7.5 °C 14.0 °F /  -10 °C 30.42 in /  1030 hPa Calm   7.0 mph /  11.3 km/h 82 % 0.00 in /  0 mm
08:01 18.8 °F /  -7.3 °C 14.0 °F /  -10 °C 30.42 in /  1030 hPa SSE 5.0 mph /  8 km/h 5.0 mph /  8 km/h 82 % 0.00 in /  0 mm
08:17 19.2 °F /  -7.1 °C 15.0 °F /  -9.4 °C 30.41 in /  1029.7 hPa SSE 2.0 mph /  3.2 km/h 8.0 mph /  12.9 km/h 82 % 0.00 in /  0 mm
08:32 19.7 °F /  -6.8 °C 15.0 °F /  -9.4 °C 30.41 in /  1029.7 hPa SSE 3.0 mph /  4.8 km/h 7.0 mph /  11.3 km/h 81 % 0.00 in /  0 mm
08:47 20.1 °F /  -6.6 °C 15.0 °F /  -9.4 °C 30.39 in /  1029 hPa SSE 2.0 mph /  3.2 km/h 7.0 mph /  11.3 km/h 81 % 0.00 in /  0 mm
09:02 20.6 °F /  -6.3 °C 16.0 °F /  -8.9 °C 30.38 in /  1028.7 hPa SSE 5.0 mph /  8 km/h 9.0 mph /  14.5 km/h 81 % 0.00 in /  0 mm
09:17 21.5 °F /  -5.8 °C 16.0 °F /  -8.9 °C 30.36 in /  1028 hPa SSE 1.0 mph /  1.6 km/h 7.0 mph /  11.3 km/h 80 % 0.00 in /  0 mm
09:32 22.7 °F /  -5.2 °C 17.0 °F /  -8.3 °C 30.35 in /  1027.7 hPa Calm   8.0 mph /  12.9 km/h 78 % 0.00 in /  0 mm
09:47 23.7 °F /  -4.6 °C 18.0 °F /  -7.8 °C 30.34 in /  1027.3 hPa SE 3.0 mph /  4.8 km/h 7.0 mph /  11.3 km/h 77 % 0.00 in /  0 mm
10:02 24.9 °F /  -3.9 °C 18.0 °F /  -7.8 °C 30.34 in /  1027.3 hPa SSE 5.0 mph /  8 km/h 8.0 mph /  12.9 km/h 74 % 0.00 in /  0 mm
10:17 26.9 °F /  -2.8 °C 18.0 °F /  -7.8 °C 30.33 in /  1027 hPa SSW 2.0 mph /  3.2 km/h 11.0 mph /  17.7 km/h 70 % 0.00 in /  0 mm
10:32 28.0 °F /  -2.2 °C 18.0 °F /  -7.8 °C 30.33 in /  1027 hPa SSE 5.0 mph /  8 km/h 8.0 mph /  12.9 km/h 67 % 0.00 in /  0 mm
10:47 28.6 °F /  -1.9 °C 18.0 °F /  -7.8 °C 30.32 in /  1026.6 hPa SSE 7.0 mph /  11.3 km/h 9.0 mph /  14.5 km/h 64 % 0.00 in /  0 mm
11:02 28.6 °F /  -1.9 °C 17.0 °F /  -8.3 °C 30.30 in /  1026 hPa SSE 8.0 mph /  12.9 km/h 10.0 mph /  16.1 km/h 63 % 0.00 in /  0 mm
11:17 29.9 °F /  -1.2 °C 18.0 °F /  -7.8 °C 30.27 in /  1024.9 hPa SW 4.0 mph /  6.4 km/h 14.0 mph /  22.5 km/h 61 % 0.00 in /  0 mm
11:32 31.0 °F /  -0.6 °C 18.0 °F /  -7.8 °C 30.26 in /  1024.6 hPa South 6.0 mph /  9.7 km/h 12.0 mph /  19.3 km/h 58 % 0.00 in /  0 mm
11:47 31.6 °F /  -0.2 °C 18.0 °F /  -7.8 °C 30.25 in /  1024.3 hPa SSE 3.0 mph /  4.8 km/h 13.0 mph /  20.9 km/h 57 % 0.00 in /  0 mm
12:02 31.5 °F /  -0.3 °C 17.0 °F /  -8.3 °C 30.22 in /  1023.2 hPa SSE 2.0 mph /  3.2 km/h 13.0 mph /  20.9 km/h 56 % 0.00 in /  0 mm
12:17 32.2 °F /  0.1 °C 18.0 °F /  -7.8 °C 30.19 in /  1022.2 hPa SE 8.0 mph /  12.9 km/h 9.0 mph /  14.5 km/h 56 % 0.00 in /  0 mm
12:33 32.8 °F /  0.4 °C 18.0 °F /  -7.8 °C 30.18 in /  1021.9 hPa SSE 6.0 mph /  9.7 km/h 9.0 mph /  14.5 km/h 55 % 0.00 in /  0 mm
12:48 34.3 °F /  1.3 °C 19.0 °F /  -7.2 °C 30.16 in /  1021.2 hPa SSE 4.0 mph /  6.4 km/h 8.0 mph /  12.9 km/h 53 % 0.00 in /  0 mm
13:03 35.5 °F /  1.9 °C 18.0 °F /  -7.8 °C 30.13 in /  1020.2 hPa SSE 6.0 mph /  9.7 km/h 11.0 mph /  17.7 km/h 50 % 0.00 in /  0 mm
13:18 36.2 °F /  2.3 °C 18.0 °F /  -7.8 °C 30.12 in /  1019.9 hPa SSW 10.0 mph /  16.1 km/h 11.0 mph /  17.7 km/h 48 % 0.00 in /  0 mm
13:33 35.2 °F /  1.8 °C 18.0 °F /  -7.8 °C 30.10 in /  1019.2 hPa South 3.0 mph /  4.8 km/h 11.0 mph /  17.7 km/h 50 % 0.00 in /  0 mm
13:48 35.9 °F /  2.2 °C 18.0 °F /  -7.8 °C 30.08 in /  1018.5 hPa SSE 6.0 mph /  9.7 km/h 14.0 mph /  22.5 km/h 49 % 0.00 in /  0 mm
14:03 36.1 °F /  2.3 °C 18.0 °F /  -7.8 °C 30.06 in /  1017.8 hPa SSE 1.0 mph /  1.6 km/h 10.0 mph /  16.1 km/h 49 % 0.00 in /  0 mm
14:18 36.6 °F /  2.6 °C 19.0 °F /  -7.2 °C 30.04 in /  1017.2 hPa South 2.0 mph /  3.2 km/h 12.0 mph /  19.3 km/h 49 % 0.00 in /  0 mm
14:37 37.3 °F /  2.9 °C 20.0 °F /  -6.7 °C 30.03 in /  1016.8 hPa SSW 6.0 mph /  9.7 km/h 12.0 mph /  19.3 km/h 49 % 0.00 in /  0 mm
14:49 37.9 °F /  3.3 °C 20.0 °F /  -6.7 °C 30.02 in /  1016.5 hPa South 4.0 mph /  6.4 km/h 11.0 mph /  17.7 km/h 48 % 0.00 in /  0 mm
15:08 38.2 °F /  3.4 °C 20.0 °F /  -6.7 °C 30.00 in /  1015.8 hPa SSE 6.0 mph /  9.7 km/h 10.0 mph /  16.1 km/h 48 % 0.00 in /  0 mm
15:19 38.3 °F /  3.5 °C 20.0 °F /  -6.7 °C 29.98 in /  1015.1 hPa SSE 7.0 mph /  11.3 km/h 11.0 mph /  17.7 km/h 48 % 0.00 in /  0 mm
15:34 38.6 °F /  3.7 °C 20.0 °F /  -6.7 °C 29.98 in /  1015.1 hPa South 1.0 mph /  1.6 km/h 13.0 mph /  20.9 km/h 48 % 0.00 in /  0 mm
15:49 38.6 °F /  3.7 °C 20.0 °F /  -6.7 °C 29.97 in /  1014.8 hPa SW 4.0 mph /  6.4 km/h 9.0 mph /  14.5 km/h 48 % 0.00 in /  0 mm
16:04 38.6 °F /  3.7 °C 20.0 °F /  -6.7 °C 29.96 in /  1014.4 hPa WSW 8.0 mph /  12.9 km/h 10.0 mph /  16.1 km/h 47 % 0.00 in /  0 mm
16:19 38.5 °F /  3.6 °C 20.0 °F /  -6.7 °C 29.95 in /  1014.1 hPa South 3.0 mph /  4.8 km/h 10.0 mph /  16.1 km/h 47 % 0.00 in /  0 mm
16:34 38.2 °F /  3.4 °C 19.0 °F /  -7.2 °C 29.95 in /  1014.1 hPa SSW 3.0 mph /  4.8 km/h 13.0 mph /  20.9 km/h 47 % 0.00 in /  0 mm
16:49 37.9 °F /  3.3 °C 19.0 °F /  -7.2 °C 29.95 in /  1014.1 hPa SSW 3.0 mph /  4.8 km/h 8.0 mph /  12.9 km/h 47 % 0.00 in /  0 mm
17:04 37.6 °F /  3.1 °C 19.0 °F /  -7.2 °C 29.93 in /  1013.4 hPa South 8.0 mph /  12.9 km/h 9.0 mph /  14.5 km/h 47 % 0.00 in /  0 mm
17:19 37.1 °F /  2.8 °C 19.0 °F /  -7.2 °C 29.91 in /  1012.8 hPa SSW 6.0 mph /  9.7 km/h 9.0 mph /  14.5 km/h 48 % 0.00 in /  0 mm
17:34 36.8 °F /  2.7 °C 19.0 °F /  -7.2 °C 29.91 in /  1012.8 hPa South 2.0 mph /  3.2 km/h 8.0 mph /  12.9 km/h 49 % 0.00 in /  0 mm
17:49 36.7 °F /  2.6 °C 19.0 °F /  -7.2 °C 29.90 in /  1012.4 hPa South 7.0 mph /  11.3 km/h 12.0 mph /  19.3 km/h 49 % 0.00 in /  0 mm
18:04 36.6 °F /  2.6 °C 19.0 °F /  -7.2 °C 29.89 in /  1012.1 hPa South 7.0 mph /  11.3 km/h 8.0 mph /  12.9 km/h 49 % 0.00 in /  0 mm
18:19 36.6 °F /  2.6 °C 19.0 °F /  -7.2 °C 29.89 in /  1012.1 hPa SSW 4.0 mph /  6.4 km/h 6.0 mph /  9.7 km/h 49 % 0.00 in /  0 mm
18:34 36.7 °F /  2.6 °C 19.0 °F /  -7.2 °C 29.88 in /  1011.7 hPa SSW 4.0 mph /  6.4 km/h 7.0 mph /  11.3 km/h 49 % 0.00 in /  0 mm
18:49 36.9 °F /  2.7 °C 19.0 °F /  -7.2 °C 29.87 in /  1011.4 hPa South 2.0 mph /  3.2 km/h 9.0 mph /  14.5 km/h 49 % 0.00 in /  0 mm
19:04 37.2 °F /  2.9 °C 19.0 °F /  -7.2 °C 29.87 in /  1011.4 hPa South 2.0 mph /  3.2 km/h 11.0 mph /  17.7 km/h 49 % 0.00 in /  0 mm
19:19 37.6 °F /  3.1 °C 20.0 °F /  -6.7 °C 29.85 in /  1010.7 hPa ESE 4.0 mph /  6.4 km/h 14.0 mph /  22.5 km/h 49 % 0.00 in /  0 mm
19:34 37.7 °F /  3.2 °C 20.0 °F /  -6.7 °C 29.85 in /  1010.7 hPa SSW 3.0 mph /  4.8 km/h 5.0 mph /  8 km/h 49 % 0.00 in /  0 mm
19:49 38.1 °F /  3.4 °C 20.0 °F /  -6.7 °C 29.84 in /  1010.4 hPa SW 5.0 mph /  8 km/h 10.0 mph /  16.1 km/h 49 % 0.00 in /  0 mm
20:04 38.5 °F /  3.6 °C 21.0 °F /  -6.1 °C 29.84 in /  1010.4 hPa South 1.0 mph /  1.6 km/h 9.0 mph /  14.5 km/h 49 % 0.00 in /  0 mm
20:19 38.5 °F /  3.6 °C 21.0 °F /  -6.1 °C 29.83 in /  1010 hPa SSW 1.0 mph /  1.6 km/h 8.0 mph /  12.9 km/h 50 % 0.00 in /  0 mm
20:34 38.2 °F /  3.4 °C 21.0 °F /  -6.1 °C 29.82 in /  1009.7 hPa South 6.0 mph /  9.7 km/h 6.0 mph /  9.7 km/h 50 % 0.00 in /  0 mm
20:49 38.0 °F /  3.3 °C 21.0 °F /  -6.1 °C 29.81 in /  1009.4 hPa SSE 6.0 mph /  9.7 km/h 10.0 mph /  16.1 km/h 51 % 0.00 in /  0 mm
21:04 37.9 °F /  3.3 °C 21.0 °F /  -6.1 °C 29.80 in /  1009 hPa South 2.0 mph /  3.2 km/h 7.0 mph /  11.3 km/h 51 % 0.00 in /  0 mm
21:19 38.1 °F /  3.4 °C 21.0 °F /  -6.1 °C 29.80 in /  1009 hPa Calm   8.0 mph /  12.9 km/h 51 % 0.00 in /  0 mm
21:34 38.3 °F /  3.5 °C 22.0 °F /  -5.6 °C 29.79 in /  1008.7 hPa WSW 6.0 mph /  9.7 km/h 8.0 mph /  12.9 km/h 52 % 0.00 in /  0 mm
21:49 38.5 °F /  3.6 °C 22.0 °F /  -5.6 °C 29.77 in /  1008 hPa SSW 1.0 mph /  1.6 km/h 7.0 mph /  11.3 km/h 52 % 0.00 in /  0 mm
22:04 38.8 °F /  3.8 °C 22.0 °F /  -5.6 °C 29.77 in /  1008 hPa South 1.0 mph /  1.6 km/h 7.0 mph /  11.3 km/h 52 % 0.00 in /  0 mm
22:19 39.1 °F /  3.9 °C 23.0 °F /  -5 °C 29.76 in /  1007.7 hPa SSW 3.0 mph /  4.8 km/h 7.0 mph /  11.3 km/h 52 % 0.00 in /  0 mm
22:34 39.2 °F /  4 °C 23.0 °F /  -5 °C 29.75 in /  1007.3 hPa North 2.0 mph /  3.2 km/h 7.0 mph /  11.3 km/h 52 % 0.00 in /  0 mm
22:49 39.4 °F /  4.1 °C 23.0 °F /  -5 °C 29.75 in /  1007.3 hPa South 2.0 mph /  3.2 km/h 8.0 mph /  12.9 km/h 52 % 0.00 in /  0 mm
23:05 39.7 °F /  4.3 °C 23.0 °F /  -5 °C 29.74 in /  1007 hPa SSW 1.0 mph /  1.6 km/h 6.0 mph /  9.7 km/h 52 % 0.00 in /  0 mm
23:20 40.4 °F /  4.7 °C 24.0 °F /  -4.4 °C 29.73 in /  1006.7 hPa SSW 3.0 mph /  4.8 km/h 7.0 mph /  11.3 km/h 52 % 0.00 in /  0 mm
23:35 41.0 °F /  5 °C 24.0 °F /  -4.4 °C 29.72 in /  1006.3 hPa SSW 6.0 mph /  9.7 km/h 10.0 mph /  16.1 km/h 51 % 0.00 in /  0 mm
23:50 41.5 °F /  5.3 °C 24.0 °F /  -4.4 °C 29.71 in /  1006 hPa Calm   4.0 mph /  6.4 km/h 51 % 0.00 in /  0 mm
Des Moines Weather and Climate
Compliments of Weather Underground - 3 mb

Script developed by  Jim McMurry - jmcmurry@mwt.net Adapted for the template by  Wim van der Kuil - Leuven-Template.eu

You find our weather info also at:

Weather Underground

Equipment we use:

Weather-station
Davis VP2 Plus

Weather-program
Davis Weatherlink.Com

Weather-server
iMac (Retina 4K, 21.5-inch, Late 2015)

Provider
Hostmonster.com

Davis VP2 Plus

Davis Weatherlink.Com

iMac (Retina 4K, 21.5-inch, Late 2015)

Hostmonster.com